Terminal Aerodrome Forecast
Issued by NWS King Salmon, AK

Home | Current Version | Previous Version | Text Only | Print | Product List | Glossary On
Versions: 1 2 3 4 5 6 7 8 9 10 11 12 13 14 15 16 17 18 19 20 21 22 23 24
000
FTAK31 PANC 231740
TAFAKN
TAF
PAKN 231740Z 2318/2418 15006KT P6SM -RA SCT030 OVC070
     FM232200 14007KT P6SM -RA FEW010 OVC030
     FM240400 17010KT 3SM -RA BR BKN006 OVC015=

USA.gov is the U.S. government's official web portal to all federal, state and local government web resources and services.